sensor_id;sensor_type;location;lat;lon;timestamp;temperature;humidity
46159;DHT22;31888;44.512;26.104;2023-05-07T00:01:40;13.20;95.00
46159;DHT22;31888;44.512;26.104;2023-05-07T00:04:05;13.20;95.00
46159;DHT22;31888;44.512;26.104;2023-05-07T00:06:31;13.00;95.20
46159;DHT22;31888;44.512;26.104;2023-05-07T00:08:56;12.80;95.40
46159;DHT22;31888;44.512;26.104;2023-05-07T00:11:21;12.60;95.60
46159;DHT22;31888;44.512;26.104;2023-05-07T00:13:47;12.50;95.80
46159;DHT22;31888;44.512;26.104;2023-05-07T00:16:11;12.30;95.90
46159;DHT22;31888;44.512;26.104;2023-05-07T00:18:36;12.30;96.00
46159;DHT22;31888;44.512;26.104;2023-05-07T00:21:00;12.30;96.10
46159;DHT22;31888;44.512;26.104;2023-05-07T00:23:25;12.30;96.10
46159;DHT22;31888;44.512;26.104;2023-05-07T00:25:49;12.30;96.30
46159;DHT22;31888;44.512;26.104;2023-05-07T00:28:14;12.20;96.40
46159;DHT22;31888;44.512;26.104;2023-05-07T00:30:40;12.20;96.80
46159;DHT22;31888;44.512;26.104;2023-05-07T00:33:04;12.10;97.00
46159;DHT22;31888;44.512;26.104;2023-05-07T00:35:29;12.20;97.30
46159;DHT22;31888;44.512;26.104;2023-05-07T00:37:53;12.20;97.30
46159;DHT22;31888;44.512;26.104;2023-05-07T00:40:18;12.30;97.30
46159;DHT22;31888;44.512;26.104;2023-05-07T00:42:43;12.20;96.70
46159;DHT22;31888;44.512;26.104;2023-05-07T00:45:10;12.30;96.80
46159;DHT22;31888;44.512;26.104;2023-05-07T00:47:36;12.30;97.10
46159;DHT22;31888;44.512;26.104;2023-05-07T00:50:01;12.30;96.90
46159;DHT22;31888;44.512;26.104;2023-05-07T00:52:26;12.40;97.10
46159;DHT22;31888;44.512;26.104;2023-05-07T00:54:52;12.40;97.10
46159;DHT22;31888;44.512;26.104;2023-05-07T00:57:16;12.50;97.00
46159;DHT22;31888;44.512;26.104;2023-05-07T00:59:41;12.50;97.30
46159;DHT22;31888;44.512;26.104;2023-05-07T01:02:06;12.50;97.00
46159;DHT22;31888;44.512;26.104;2023-05-07T01:04:33;12.50;96.80
46159;DHT22;31888;44.512;26.104;2023-05-07T01:06:58;12.50;96.20
46159;DHT22;31888;44.512;26.104;2023-05-07T01:09:24;12.40;96.40
46159;DHT22;31888;44.512;26.104;2023-05-07T01:11:49;12.30;96.70
46159;DHT22;31888;44.512;26.104;2023-05-07T01:14:15;12.20;96.80
46159;DHT22;31888;44.512;26.104;2023-05-07T01:16:39;12.00;97.00
46159;DHT22;31888;44.512;26.104;2023-05-07T01:19:05;11.70;97.30
46159;DHT22;31888;44.512;26.104;2023-05-07T01:21:33;11.70;97.60
46159;DHT22;31888;44.512;26.104;2023-05-07T01:24:01;11.70;97.70
46159;DHT22;31888;44.512;26.104;2023-05-07T01:26:27;11.70;97.80
46159;DHT22;31888;44.512;26.104;2023-05-07T01:28:51;11.70;97.90
46159;DHT22;31888;44.512;26.104;2023-05-07T01:31:17;11.60;97.80
46159;DHT22;31888;44.512;26.104;2023-05-07T01:33:44;11.60;98.20
46159;DHT22;31888;44.512;26.104;2023-05-07T01:36:10;11.70;98.10
46159;DHT22;31888;44.512;26.104;2023-05-07T01:38:36;11.70;98.30
46159;DHT22;31888;44.512;26.104;2023-05-07T01:41:03;11.80;98.30
46159;DHT22;31888;44.512;26.104;2023-05-07T01:43:28;11.90;98.30
46159;DHT22;31888;44.512;26.104;2023-05-07T01:45:53;11.90;98.20
46159;DHT22;31888;44.512;26.104;2023-05-07T01:48:18;11.90;97.70
46159;DHT22;31888;44.512;26.104;2023-05-07T01:50:43;12.00;97.10
46159;DHT22;31888;44.512;26.104;2023-05-07T01:53:08;11.70;97.00
46159;DHT22;31888;44.512;26.104;2023-05-07T01:55:33;11.70;97.30
46159;DHT22;31888;44.512;26.104;2023-05-07T01:58:01;11.60;97.30
46159;DHT22;31888;44.512;26.104;2023-05-07T02:00:26;11.60;97.30
46159;DHT22;31888;44.512;26.104;2023-05-07T02:02:50;11.50;97.50
46159;DHT22;31888;44.512;26.104;2023-05-07T02:05:25;11.50;97.70
46159;DHT22;31888;44.512;26.104;2023-05-07T02:08:04;11.30;97.70
46159;DHT22;31888;44.512;26.104;2023-05-07T02:10:28;11.20;97.90
46159;DHT22;31888;44.512;26.104;2023-05-07T02:12:54;11.10;98.10
46159;DHT22;31888;44.512;26.104;2023-05-07T02:15:21;11.10;98.30
46159;DHT22;31888;44.512;26.104;2023-05-07T02:17:59;11.00;98.20
46159;DHT22;31888;44.512;26.104;2023-05-07T02:20:24;11.00;98.60
46159;DHT22;31888;44.512;26.104;2023-05-07T02:23:08;10.90;98.50
46159;DHT22;31888;44.512;26.104;2023-05-07T02:25:33;10.90;98.70
46159;DHT22;31888;44.512;26.104;2023-05-07T02:27:58;10.90;98.90
46159;DHT22;31888;44.512;26.104;2023-05-07T02:30:38;10.90;99.00
46159;DHT22;31888;44.512;26.104;2023-05-07T02:33:04;10.90;99.00
46159;DHT22;31888;44.512;26.104;2023-05-07T02:35:29;10.80;99.00
46159;DHT22;31888;44.512;26.104;2023-05-07T02:37:54;10.80;99.10
46159;DHT22;31888;44.512;26.104;2023-05-07T02:40:20;10.80;99.30
46159;DHT22;31888;44.512;26.104;2023-05-07T02:42:45;10.80;99.30
46159;DHT22;31888;44.512;26.104;2023-05-07T02:45:10;10.70;99.40
46159;DHT22;31888;44.512;26.104;2023-05-07T02:47:36;10.70;99.30
46159;DHT22;31888;44.512;26.104;2023-05-07T02:50:01;10.70;99.30
46159;DHT22;31888;44.512;26.104;2023-05-07T02:52:26;10.80;99.00
46159;DHT22;31888;44.512;26.104;2023-05-07T02:54:50;10.80;99.00
46159;DHT22;31888;44.512;26.104;2023-05-07T02:57:15;10.90;98.90
46159;DHT22;31888;44.512;26.104;2023-05-07T02:59:39;11.00;98.70
46159;DHT22;31888;44.512;26.104;2023-05-07T03:02:04;11.00;98.40
46159;DHT22;31888;44.512;26.104;2023-05-07T03:04:30;11.00;98.40
46159;DHT22;31888;44.512;26.104;2023-05-07T03:06:55;11.00;98.50
46159;DHT22;31888;44.512;26.104;2023-05-07T03:09:19;11.10;98.60
46159;DHT22;31888;44.512;26.104;2023-05-07T03:11:44;11.10;98.50
46159;DHT22;31888;44.512;26.104;2023-05-07T03:14:08;11.20;98.40
46159;DHT22;31888;44.512;26.104;2023-05-07T03:16:34;11.20;98.20
46159;DHT22;31888;44.512;26.104;2023-05-07T03:18:58;11.40;98.00
46159;DHT22;31888;44.512;26.104;2023-05-07T03:21:26;11.70;97.70
46159;DHT22;31888;44.512;26.104;2023-05-07T03:23:51;11.90;97.20
46159;DHT22;31888;44.512;26.104;2023-05-07T03:26:15;12.20;96.90
46159;DHT22;31888;44.512;26.104;2023-05-07T03:28:41;12.30;96.40
46159;DHT22;31888;44.512;26.104;2023-05-07T03:31:08;12.50;96.50
46159;DHT22;31888;44.512;26.104;2023-05-07T03:33:33;12.80;96.40
46159;DHT22;31888;44.512;26.104;2023-05-07T03:35:58;13.20;95.70
46159;DHT22;31888;44.512;26.104;2023-05-07T03:38:25;13.50;95.80
46159;DHT22;31888;44.512;26.104;2023-05-07T03:40:50;13.80;95.40
46159;DHT22;31888;44.512;26.104;2023-05-07T03:43:15;14.20;94.70
46159;DHT22;31888;44.512;26.104;2023-05-07T03:45:44;14.60;94.00
46159;DHT22;31888;44.512;26.104;2023-05-07T03:48:14;14.80;92.80
46159;DHT22;31888;44.512;26.104;2023-05-07T03:50:39;14.80;92.60
46159;DHT22;31888;44.512;26.104;2023-05-07T03:53:03;14.60;92.80
46159;DHT22;31888;44.512;26.104;2023-05-07T03:55:34;14.50;92.50
46159;DHT22;31888;44.512;26.104;2023-05-07T03:57:59;14.50;92.80
46159;DHT22;31888;44.512;26.104;2023-05-07T04:00:24;14.50;92.60
46159;DHT22;31888;44.512;26.104;2023-05-07T04:02:48;14.80;92.40
46159;DHT22;31888;44.512;26.104;2023-05-07T04:05:20;14.90;91.90
46159;DHT22;31888;44.512;26.104;2023-05-07T04:07:48;14.90;91.40
46159;DHT22;31888;44.512;26.104;2023-05-07T04:10:17;14.80;91.50
46159;DHT22;31888;44.512;26.104;2023-05-07T04:12:45;14.80;91.90
46159;DHT22;31888;44.512;26.104;2023-05-07T04:15:14;14.80;91.70
46159;DHT22;31888;44.512;26.104;2023-05-07T04:17:39;14.70;91.40
46159;DHT22;31888;44.512;26.104;2023-05-07T04:20:09;14.70;91.90
46159;DHT22;31888;44.512;26.104;2023-05-07T04:22:35;15.00;91.70
46159;DHT22;31888;44.512;26.104;2023-05-07T04:25:03;15.00;90.80
46159;DHT22;31888;44.512;26.104;2023-05-07T04:27:29;15.10;91.10
46159;DHT22;31888;44.512;26.104;2023-05-07T04:29:55;15.00;90.90
46159;DHT22;31888;44.512;26.104;2023-05-07T04:32:20;14.90;91.20
46159;DHT22;31888;44.512;26.104;2023-05-07T04:34:45;14.80;91.40
46159;DHT22;31888;44.512;26.104;2023-05-07T04:37:10;15.00;91.00
46159;DHT22;31888;44.512;26.104;2023-05-07T04:39:34;15.10;90.80
46159;DHT22;31888;44.512;26.104;2023-05-07T04:41:59;15.00;90.60
46159;DHT22;31888;44.512;26.104;2023-05-07T04:44:37;15.30;90.60
46159;DHT22;31888;44.512;26.104;2023-05-07T04:47:03;15.60;90.00
46159;DHT22;31888;44.512;26.104;2023-05-07T04:49:28;15.80;89.20
46159;DHT22;31888;44.512;26.104;2023-05-07T04:51:53;16.10;89.80
46159;DHT22;31888;44.512;26.104;2023-05-07T04:54:19;16.10;88.30
46159;DHT22;31888;44.512;26.104;2023-05-07T04:56:44;16.20;88.20
46159;DHT22;31888;44.512;26.104;2023-05-07T04:59:08;16.30;88.20
46159;DHT22;31888;44.512;26.104;2023-05-07T05:01:33;16.80;88.10
46159;DHT22;31888;44.512;26.104;2023-05-07T05:03:59;16.80;86.10
46159;DHT22;31888;44.512;26.104;2023-05-07T05:06:25;16.80;85.80
46159;DHT22;31888;44.512;26.104;2023-05-07T05:08:58;17.00;85.70
46159;DHT22;31888;44.512;26.104;2023-05-07T05:11:46;17.00;86.10
46159;DHT22;31888;44.512;26.104;2023-05-07T05:14:14;16.80;85.90
46159;DHT22;31888;44.512;26.104;2023-05-07T05:16:49;16.80;85.90
46159;DHT22;31888;44.512;26.104;2023-05-07T05:19:15;17.30;84.80
46159;DHT22;31888;44.512;26.104;2023-05-07T05:21:40;17.30;85.30
46159;DHT22;31888;44.512;26.104;2023-05-07T05:24:08;17.50;84.50
46159;DHT22;31888;44.512;26.104;2023-05-07T05:26:34;17.70;84.40
46159;DHT22;31888;44.512;26.104;2023-05-07T05:28:59;17.80;84.20
46159;DHT22;31888;44.512;26.104;2023-05-07T05:31:25;17.70;84.20
46159;DHT22;31888;44.512;26.104;2023-05-07T05:33:50;17.80;83.00
46159;DHT22;31888;44.512;26.104;2023-05-07T05:36:34;17.90;83.20
46159;DHT22;31888;44.512;26.104;2023-05-07T05:38:59;18.40;82.30
46159;DHT22;31888;44.512;26.104;2023-05-07T05:41:25;18.10;82.80
46159;DHT22;31888;44.512;26.104;2023-05-07T05:43:51;18.10;83.90
46159;DHT22;31888;44.512;26.104;2023-05-07T05:46:15;18.10;82.70
46159;DHT22;31888;44.512;26.104;2023-05-07T05:48:40;18.20;82.60
46159;DHT22;31888;44.512;26.104;2023-05-07T05:51:06;18.50;82.40
46159;DHT22;31888;44.512;26.104;2023-05-07T05:53:32;19.10;81.10
46159;DHT22;31888;44.512;26.104;2023-05-07T05:55:58;19.10;80.60
46159;DHT22;31888;44.512;26.104;2023-05-07T05:58:24;19.10;80.50
46159;DHT22;31888;44.512;26.104;2023-05-07T06:00:55;19.50;82.50
46159;DHT22;31888;44.512;26.104;2023-05-07T06:03:22;20.10;80.30
46159;DHT22;31888;44.512;26.104;2023-05-07T06:05:47;20.30;77.50
46159;DHT22;31888;44.512;26.104;2023-05-07T06:08:13;20.10;76.10
46159;DHT22;31888;44.512;26.104;2023-05-07T06:10:40;19.70;78.60
46159;DHT22;31888;44.512;26.104;2023-05-07T06:13:05;19.80;79.20
46159;DHT22;31888;44.512;26.104;2023-05-07T06:15:32;19.90;76.60
46159;DHT22;31888;44.512;26.104;2023-05-07T06:18:03;20.20;78.50
46159;DHT22;31888;44.512;26.104;2023-05-07T06:20:28;20.20;76.50
46159;DHT22;31888;44.512;26.104;2023-05-07T06:22:54;20.20;75.70
46159;DHT22;31888;44.512;26.104;2023-05-07T06:25:20;20.30;74.60
46159;DHT22;31888;44.512;26.104;2023-05-07T06:27:47;20.20;75.30
46159;DHT22;31888;44.512;26.104;2023-05-07T06:30:12;20.50;75.80
46159;DHT22;31888;44.512;26.104;2023-05-07T06:32:38;20.80;74.50
46159;DHT22;31888;44.512;26.104;2023-05-07T06:35:03;21.00;73.00
46159;DHT22;31888;44.512;26.104;2023-05-07T06:37:31;21.10;73.50
46159;DHT22;31888;44.512;26.104;2023-05-07T06:40:00;20.90;74.10
46159;DHT22;31888;44.512;26.104;2023-05-07T06:42:28;21.30;73.40
46159;DHT22;31888;44.512;26.104;2023-05-07T06:45:02;21.70;72.00
46159;DHT22;31888;44.512;26.104;2023-05-07T06:47:27;21.60;71.30
46159;DHT22;31888;44.512;26.104;2023-05-07T06:49:52;21.60;71.70
46159;DHT22;31888;44.512;26.104;2023-05-07T06:52:23;21.60;71.40
46159;DHT22;31888;44.512;26.104;2023-05-07T06:54:49;21.50;70.90
46159;DHT22;31888;44.512;26.104;2023-05-07T06:57:16;21.50;71.10
46159;DHT22;31888;44.512;26.104;2023-05-07T06:59:42;21.60;70.50
46159;DHT22;31888;44.512;26.104;2023-05-07T07:02:09;22.10;70.90
46159;DHT22;31888;44.512;26.104;2023-05-07T07:04:34;22.50;71.20
46159;DHT22;31888;44.512;26.104;2023-05-07T07:07:03;22.80;70.00
46159;DHT22;31888;44.512;26.104;2023-05-07T07:09:27;22.70;68.80
46159;DHT22;31888;44.512;26.104;2023-05-07T07:11:53;23.00;68.40
46159;DHT22;31888;44.512;26.104;2023-05-07T07:14:18;23.00;68.60
46159;DHT22;31888;44.512;26.104;2023-05-07T07:16:47;23.10;68.10
46159;DHT22;31888;44.512;26.104;2023-05-07T07:19:17;22.10;69.90
46159;DHT22;31888;44.512;26.104;2023-05-07T07:21:46;22.40;68.90
46159;DHT22;31888;44.512;26.104;2023-05-07T07:24:13;22.70;67.80
46159;DHT22;31888;44.512;26.104;2023-05-07T07:26:43;22.70;67.80
46159;DHT22;31888;44.512;26.104;2023-05-07T07:29:09;22.50;66.60
46159;DHT22;31888;44.512;26.104;2023-05-07T07:31:37;23.10;68.40
46159;DHT22;31888;44.512;26.104;2023-05-07T07:34:03;23.40;66.50
46159;DHT22;31888;44.512;26.104;2023-05-07T07:36:29;23.20;66.10
46159;DHT22;31888;44.512;26.104;2023-05-07T07:39:10;23.50;66.50
46159;DHT22;31888;44.512;26.104;2023-05-07T07:41:35;23.00;66.40
46159;DHT22;31888;44.512;26.104;2023-05-07T07:44:00;23.10;66.70
46159;DHT22;31888;44.512;26.104;2023-05-07T07:46:26;23.50;66.10
46159;DHT22;31888;44.512;26.104;2023-05-07T07:48:52;23.50;65.90
46159;DHT22;31888;44.512;26.104;2023-05-07T07:51:17;23.30;65.30
46159;DHT22;31888;44.512;26.104;2023-05-07T07:53:43;23.20;65.40
46159;DHT22;31888;44.512;26.104;2023-05-07T07:56:09;23.30;66.20
46159;DHT22;31888;44.512;26.104;2023-05-07T07:58:34;23.10;65.40
46159;DHT22;31888;44.512;26.104;2023-05-07T08:01:01;23.20;65.60
46159;DHT22;31888;44.512;26.104;2023-05-07T08:03:26;23.40;66.20
46159;DHT22;31888;44.512;26.104;2023-05-07T08:05:55;23.20;66.20
46159;DHT22;31888;44.512;26.104;2023-05-07T08:08:21;23.30;66.10
46159;DHT22;31888;44.512;26.104;2023-05-07T08:10:48;23.60;64.00
46159;DHT22;31888;44.512;26.104;2023-05-07T08:13:22;23.90;64.10
46159;DHT22;31888;44.512;26.104;2023-05-07T08:15:47;23.90;64.80
46159;DHT22;31888;44.512;26.104;2023-05-07T08:18:12;24.20;62.70
46159;DHT22;31888;44.512;26.104;2023-05-07T08:20:37;24.30;61.90
46159;DHT22;31888;44.512;26.104;2023-05-07T08:23:08;24.70;62.60
46159;DHT22;31888;44.512;26.104;2023-05-07T08:25:35;24.70;62.40
46159;DHT22;31888;44.512;26.104;2023-05-07T08:28:02;24.70;63.00
46159;DHT22;31888;44.512;26.104;2023-05-07T08:30:30;24.60;61.90
46159;DHT22;31888;44.512;26.104;2023-05-07T08:32:55;24.60;60.90
46159;DHT22;31888;44.512;26.104;2023-05-07T08:35:20;24.60;60.20
46159;DHT22;31888;44.512;26.104;2023-05-07T08:37:45;24.90;60.00
46159;DHT22;31888;44.512;26.104;2023-05-07T08:40:11;24.70;60.10
46159;DHT22;31888;44.512;26.104;2023-05-07T08:42:38;24.80;60.60
46159;DHT22;31888;44.512;26.104;2023-05-07T08:45:09;24.90;60.80
46159;DHT22;31888;44.512;26.104;2023-05-07T08:47:43;24.70;60.00
46159;DHT22;31888;44.512;26.104;2023-05-07T08:50:12;24.90;60.50
46159;DHT22;31888;44.512;26.104;2023-05-07T08:52:39;24.60;62.30
46159;DHT22;31888;44.512;26.104;2023-05-07T08:55:07;24.60;61.70
46159;DHT22;31888;44.512;26.104;2023-05-07T08:57:35;24.70;59.90
46159;DHT22;31888;44.512;26.104;2023-05-07T09:00:04;24.90;59.40
46159;DHT22;31888;44.512;26.104;2023-05-07T09:02:33;24.90;61.60
46159;DHT22;31888;44.512;26.104;2023-05-07T09:05:08;24.90;60.70
46159;DHT22;31888;44.512;26.104;2023-05-07T09:07:37;25.00;60.10
46159;DHT22;31888;44.512;26.104;2023-05-07T09:10:05;25.00;59.80
46159;DHT22;31888;44.512;26.104;2023-05-07T09:12:32;25.10;61.20
46159;DHT22;31888;44.512;26.104;2023-05-07T09:15:08;25.40;61.20
46159;DHT22;31888;44.512;26.104;2023-05-07T09:17:39;25.20;61.10
46159;DHT22;31888;44.512;26.104;2023-05-07T09:20:11;24.90;61.00
46159;DHT22;31888;44.512;26.104;2023-05-07T09:22:42;25.00;62.20
46159;DHT22;31888;44.512;26.104;2023-05-07T09:25:11;25.10;61.90
46159;DHT22;31888;44.512;26.104;2023-05-07T09:27:37;25.30;61.60
46159;DHT22;31888;44.512;26.104;2023-05-07T09:30:05;25.20;61.20
46159;DHT22;31888;44.512;26.104;2023-05-07T09:32:35;25.20;60.80
46159;DHT22;31888;44.512;26.104;2023-05-07T09:35:08;25.30;61.00
46159;DHT22;31888;44.512;26.104;2023-05-07T09:37:38;25.60;60.10
46159;DHT22;31888;44.512;26.104;2023-05-07T09:40:06;25.70;59.00
46159;DHT22;31888;44.512;26.104;2023-05-07T09:42:32;25.70;58.40
46159;DHT22;31888;44.512;26.104;2023-05-07T09:45:00;24.90;58.30
46159;DHT22;31888;44.512;26.104;2023-05-07T09:47:40;24.70;59.80
46159;DHT22;31888;44.512;26.104;2023-05-07T09:50:16;24.80;62.30
46159;DHT22;31888;44.512;26.104;2023-05-07T09:52:49;25.00;61.00
46159;DHT22;31888;44.512;26.104;2023-05-07T09:55:15;25.10;62.10
46159;DHT22;31888;44.512;26.104;2023-05-07T09:57:55;25.00;62.50
46159;DHT22;31888;44.512;26.104;2023-05-07T10:00:24;25.10;60.00
46159;DHT22;31888;44.512;26.104;2023-05-07T10:02:58;24.90;60.70
46159;DHT22;31888;44.512;26.104;2023-05-07T10:05:41;24.50;61.90
46159;DHT22;31888;44.512;26.104;2023-05-07T10:08:09;24.50;60.90
46159;DHT22;31888;44.512;26.104;2023-05-07T10:10:36;24.60;61.60
46159;DHT22;31888;44.512;26.104;2023-05-07T10:13:05;24.60;61.00
46159;DHT22;31888;44.512;26.104;2023-05-07T10:15:38;24.60;60.10
46159;DHT22;31888;44.512;26.104;2023-05-07T10:18:15;24.70;60.90
46159;DHT22;31888;44.512;26.104;2023-05-07T10:21:20;24.60;60.30
46159;DHT22;31888;44.512;26.104;2023-05-07T10:23:50;24.50;60.40
46159;DHT22;31888;44.512;26.104;2023-05-07T10:26:17;24.50;59.70
46159;DHT22;31888;44.512;26.104;2023-05-07T10:28:46;24.40;60.90
46159;DHT22;31888;44.512;26.104;2023-05-07T10:31:31;24.40;60.50
46159;DHT22;31888;44.512;26.104;2023-05-07T10:34:09;24.00;63.80
46159;DHT22;31888;44.512;26.104;2023-05-07T10:36:37;24.30;63.50
46159;DHT22;31888;44.512;26.104;2023-05-07T10:39:05;24.40;63.10
46159;DHT22;31888;44.512;26.104;2023-05-07T10:41:37;24.60;61.80
46159;DHT22;31888;44.512;26.104;2023-05-07T10:44:04;24.50;60.90
46159;DHT22;31888;44.512;26.104;2023-05-07T10:46:31;24.60;62.80
46159;DHT22;31888;44.512;26.104;2023-05-07T10:49:13;24.60;61.90
46159;DHT22;31888;44.512;26.104;2023-05-07T10:52:15;24.30;62.70
46159;DHT22;31888;44.512;26.104;2023-05-07T10:55:23;24.20;64.60
46159;DHT22;31888;44.512;26.104;2023-05-07T10:58:24;24.00;63.80
46159;DHT22;31888;44.512;26.104;2023-05-07T11:01:49;24.00;66.20
46159;DHT22;31888;44.512;26.104;2023-05-07T11:04:19;24.20;66.50
46159;DHT22;31888;44.512;26.104;2023-05-07T11:10:09;24.10;64.40
46159;DHT22;31888;44.512;26.104;2023-05-07T11:12:54;24.00;63.10
46159;DHT22;31888;44.512;26.104;2023-05-07T11:15:43;23.70;63.20
46159;DHT22;31888;44.512;26.104;2023-05-07T11:18:17;23.90;63.90
46159;DHT22;31888;44.512;26.104;2023-05-07T11:20:55;24.10;63.60
46159;DHT22;31888;44.512;26.104;2023-05-07T11:23:58;24.50;62.70
46159;DHT22;31888;44.512;26.104;2023-05-07T11:26:45;24.70;62.20
46159;DHT22;31888;44.512;26.104;2023-05-07T11:29:12;24.30;62.60
46159;DHT22;31888;44.512;26.104;2023-05-07T11:31:49;24.30;62.80
46159;DHT22;31888;44.512;26.104;2023-05-07T11:34:22;24.10;63.00
46159;DHT22;31888;44.512;26.104;2023-05-07T11:36:49;24.20;64.50
46159;DHT22;31888;44.512;26.104;2023-05-07T11:39:27;24.20;64.80
46159;DHT22;31888;44.512;26.104;2023-05-07T11:41:53;24.40;62.80
46159;DHT22;31888;44.512;26.104;2023-05-07T11:44:18;24.70;61.90
46159;DHT22;31888;44.512;26.104;2023-05-07T11:46:44;24.70;61.90
46159;DHT22;31888;44.512;26.104;2023-05-07T11:49:09;24.70;63.90
46159;DHT22;31888;44.512;26.104;2023-05-07T11:51:35;24.40;63.60
46159;DHT22;31888;44.512;26.104;2023-05-07T11:54:00;24.20;63.80
46159;DHT22;31888;44.512;26.104;2023-05-07T11:56:25;24.30;64.80
46159;DHT22;31888;44.512;26.104;2023-05-07T11:58:51;24.40;65.40
46159;DHT22;31888;44.512;26.104;2023-05-07T12:01:18;24.60;63.90
46159;DHT22;31888;44.512;26.104;2023-05-07T12:03:44;24.40;65.20
46159;DHT22;31888;44.512;26.104;2023-05-07T12:06:10;24.60;63.80
46159;DHT22;31888;44.512;26.104;2023-05-07T12:08:36;24.70;63.60
46159;DHT22;31888;44.512;26.104;2023-05-07T12:11:03;24.90;63.60
46159;DHT22;31888;44.512;26.104;2023-05-07T12:13:32;24.80;64.60
46159;DHT22;31888;44.512;26.104;2023-05-07T12:15:59;24.80;64.70
46159;DHT22;31888;44.512;26.104;2023-05-07T12:18:27;24.50;63.30
46159;DHT22;31888;44.512;26.104;2023-05-07T12:20:56;24.20;64.20
46159;DHT22;31888;44.512;26.104;2023-05-07T12:23:22;24.00;65.30
46159;DHT22;31888;44.512;26.104;2023-05-07T12:25:49;23.70;66.50
46159;DHT22;31888;44.512;26.104;2023-05-07T12:28:14;23.60;67.90
46159;DHT22;31888;44.512;26.104;2023-05-07T12:30:39;23.70;66.80
46159;DHT22;31888;44.512;26.104;2023-05-07T12:33:06;23.90;68.00
46159;DHT22;31888;44.512;26.104;2023-05-07T12:35:32;24.20;66.50
46159;DHT22;31888;44.512;26.104;2023-05-07T12:37:58;24.40;66.50
46159;DHT22;31888;44.512;26.104;2023-05-07T12:40:35;24.70;65.50
46159;DHT22;31888;44.512;26.104;2023-05-07T12:43:01;24.40;67.20
46159;DHT22;31888;44.512;26.104;2023-05-07T12:45:26;24.50;65.50
46159;DHT22;31888;44.512;26.104;2023-05-07T12:47:51;24.50;64.40
46159;DHT22;31888;44.512;26.104;2023-05-07T12:50:17;24.50;65.00
46159;DHT22;31888;44.512;26.104;2023-05-07T12:52:42;24.60;65.90
46159;DHT22;31888;44.512;26.104;2023-05-07T12:55:08;24.80;64.70
46159;DHT22;31888;44.512;26.104;2023-05-07T12:57:38;25.00;63.70
46159;DHT22;31888;44.512;26.104;2023-05-07T13:00:05;24.80;64.40
46159;DHT22;31888;44.512;26.104;2023-05-07T13:02:32;24.70;65.40
46159;DHT22;31888;44.512;26.104;2023-05-07T13:04:58;24.50;65.50
46159;DHT22;31888;44.512;26.104;2023-05-07T13:07:27;24.30;64.60
46159;DHT22;31888;44.512;26.104;2023-05-07T13:09:53;24.30;65.30
46159;DHT22;31888;44.512;26.104;2023-05-07T13:12:18;24.30;64.80
46159;DHT22;31888;44.512;26.104;2023-05-07T13:14:42;24.30;64.50
46159;DHT22;31888;44.512;26.104;2023-05-07T13:17:08;24.40;64.60
46159;DHT22;31888;44.512;26.104;2023-05-07T13:19:34;24.30;64.30
46159;DHT22;31888;44.512;26.104;2023-05-07T13:22:00;24.20;65.00
46159;DHT22;31888;44.512;26.104;2023-05-07T13:24:26;24.20;63.90
46159;DHT22;31888;44.512;26.104;2023-05-07T13:26:52;24.20;64.50
46159;DHT22;31888;44.512;26.104;2023-05-07T13:29:16;24.40;64.10
46159;DHT22;31888;44.512;26.104;2023-05-07T13:31:41;24.50;65.30
46159;DHT22;31888;44.512;26.104;2023-05-07T13:34:07;24.60;65.70
46159;DHT22;31888;44.512;26.104;2023-05-07T13:36:33;24.70;63.90
46159;DHT22;31888;44.512;26.104;2023-05-07T13:39:00;24.60;63.40
46159;DHT22;31888;44.512;26.104;2023-05-07T13:41:26;24.80;63.00
46159;DHT22;31888;44.512;26.104;2023-05-07T13:43:51;24.90;63.70
46159;DHT22;31888;44.512;26.104;2023-05-07T13:46:16;24.90;63.00
46159;DHT22;31888;44.512;26.104;2023-05-07T13:48:41;24.80;63.70
46159;DHT22;31888;44.512;26.104;2023-05-07T13:51:06;24.90;63.70
46159;DHT22;31888;44.512;26.104;2023-05-07T13:53:31;25.00;63.40
46159;DHT22;31888;44.512;26.104;2023-05-07T13:55:56;25.20;63.30
46159;DHT22;31888;44.512;26.104;2023-05-07T13:58:24;25.30;63.70
46159;DHT22;31888;44.512;26.104;2023-05-07T14:00:49;25.30;64.10
46159;DHT22;31888;44.512;26.104;2023-05-07T14:03:14;25.10;64.30
46159;DHT22;31888;44.512;26.104;2023-05-07T14:05:40;25.10;64.40
46159;DHT22;31888;44.512;26.104;2023-05-07T14:08:05;25.00;63.90
46159;DHT22;31888;44.512;26.104;2023-05-07T14:10:33;24.90;64.80
46159;DHT22;31888;44.512;26.104;2023-05-07T14:12:58;25.00;65.00
46159;DHT22;31888;44.512;26.104;2023-05-07T14:15:26;25.10;65.30
46159;DHT22;31888;44.512;26.104;2023-05-07T14:17:51;25.10;65.60
46159;DHT22;31888;44.512;26.104;2023-05-07T14:20:18;25.20;65.60
46159;DHT22;31888;44.512;26.104;2023-05-07T14:22:46;25.20;65.40
46159;DHT22;31888;44.512;26.104;2023-05-07T14:25:11;25.10;63.90
46159;DHT22;31888;44.512;26.104;2023-05-07T14:27:40;25.00;64.10
46159;DHT22;31888;44.512;26.104;2023-05-07T14:30:06;25.00;64.60
46159;DHT22;31888;44.512;26.104;2023-05-07T14:32:34;24.90;65.70
46159;DHT22;31888;44.512;26.104;2023-05-07T14:34:59;24.70;64.80
46159;DHT22;31888;44.512;26.104;2023-05-07T14:37:28;24.70;65.30
46159;DHT22;31888;44.512;26.104;2023-05-07T14:39:54;24.70;65.30
46159;DHT22;31888;44.512;26.104;2023-05-07T14:42:18;24.70;65.00
46159;DHT22;31888;44.512;26.104;2023-05-07T14:44:43;24.70;65.20
46159;DHT22;31888;44.512;26.104;2023-05-07T14:47:08;24.70;66.30
46159;DHT22;31888;44.512;26.104;2023-05-07T14:49:35;24.70;66.60
46159;DHT22;31888;44.512;26.104;2023-05-07T14:52:00;24.70;66.00
46159;DHT22;31888;44.512;26.104;2023-05-07T14:54:25;24.70;65.80
46159;DHT22;31888;44.512;26.104;2023-05-07T14:56:50;24.60;66.90
46159;DHT22;31888;44.512;26.104;2023-05-07T14:59:15;24.60;68.20
46159;DHT22;31888;44.512;26.104;2023-05-07T15:01:43;24.30;68.40
46159;DHT22;31888;44.512;26.104;2023-05-07T15:04:09;24.30;67.60
46159;DHT22;31888;44.512;26.104;2023-05-07T15:06:35;24.20;67.90
46159;DHT22;31888;44.512;26.104;2023-05-07T15:09:00;24.30;67.90
46159;DHT22;31888;44.512;26.104;2023-05-07T15:11:27;24.30;67.80
46159;DHT22;31888;44.512;26.104;2023-05-07T15:13:52;24.30;68.60
46159;DHT22;31888;44.512;26.104;2023-05-07T15:16:17;24.30;68.00
46159;DHT22;31888;44.512;26.104;2023-05-07T15:18:43;24.20;68.10
46159;DHT22;31888;44.512;26.104;2023-05-07T15:21:08;24.30;68.50
46159;DHT22;31888;44.512;26.104;2023-05-07T15:23:35;24.30;68.80